Hermann Hesse — A8KW5 — position and weather

sailwx.info

Track history (hours):
 
Tides and Currents Weather Stations Pressure Air Temp Water Temp Dewpoint Dewpoint Depression Visibility Wind Speed Wind Dir Waves Ship Positions

Hermann Hesse

Last reported at 2018-Apr-12 08:22 UTC. Time now 2018-Jun-18 01:27 UTC.
Position N 40°20' W 073°42'.
Warning: this ship's position is months out of date.

Length 177 m; draft 9 m.

Type: Cargo ship. MMSI: 636091222.

Date/timePositionNaut miles runAvg speedWind from/ knotsBaromVisibWave heightAir tempDewpointWater temp
2018-Apr-12 08:22N 40°20' W 073°42'4 9.8
2018-Apr-12 07:57N 40°23' W 073°45'510.0
2018-Apr-12 07:30N 40°27' W 073°49'5 9.6
2018-Apr-12 07:00N 40°29' W 073°54'612.0
2018-Apr-12 06:30N 40°32' W 074°01'612.7
2018-Apr-12 06:00N 40°38' W 074°03'4 7.5
2018-Apr-12 05:30N 40°41' W 074°01'0 0.3
2018-Apr-12 05:00N 40°41' W 074°01'0 0.0
2018-Apr-12 04:30N 40°41' W 074°01'0 0.0
2018-Apr-12 04:00N 40°41' W 074°01'0 0.0
2018-Apr-12 03:30N 40°41' W 074°01'0 0.0
2018-Apr-12 03:00N 40°41' W 074°01'0 0.0
2018-Apr-12 02:30N 40°41' W 074°01'0 0.0
2018-Apr-12 02:00N 40°41' W 074°01'0 0.0
2018-Apr-12 01:30N 40°41' W 074°01'0 0.0
2018-Apr-12 01:00N 40°41' W 074°01'0 0.0
2018-Apr-12 00:30N 40°41' W 074°01'0 0.0
2018-Apr-12 00:00N 40°41' W 074°01'0 0.0
2018-Apr-11 23:30N 40°41' W 074°01'0 0.0
2018-Apr-11 23:00N 40°41' W 074°01'0 0.0
2018-Apr-11 22:30N 40°41' W 074°01'0 0.0
2018-Apr-11 22:00N 40°41' W 074°01'0 0.0
2018-Apr-11 21:30N 40°41' W 074°01'0 0.0
2018-Apr-11 21:00N 40°41' W 074°01'0 0.0
2018-Apr-11 20:30N 40°41' W 074°01'0 0.0
2018-Apr-11 20:00N 40°41' W 074°01'0 0.0
2018-Apr-11 19:30N 40°41' W 074°01'0 0.0
2018-Apr-11 19:00N 40°41' W 074°01'0 0.0
2018-Apr-11 18:29N 40°41' W 074°01'0 0.0
2018-Apr-11 18:00N 40°41' W 074°01'0 0.0
2018-Apr-11 17:30N 40°41' W 074°01'0 0.0
2018-Apr-11 17:00N 40°41' W 074°01'0 0.0
2018-Apr-11 16:30N 40°41' W 074°01'0 0.0
2018-Apr-11 16:00N 40°41' W 074°01'0 0.0
2018-Apr-11 15:30N 40°41' W 074°01'0 0.0
2018-Apr-11 15:00N 40°41' W 074°01'0 0.0
2018-Apr-11 14:30N 40°41' W 074°01'0 0.0
2018-Apr-11 14:00N 40°41' W 074°01'0 0.0
2018-Apr-11 13:29N 40°41' W 074°01'0 0.0
2018-Apr-11 12:59N 40°41' W 074°01'0 0.0
2018-Apr-11 12:30N 40°41' W 074°01'0 0.0
2018-Apr-11 12:00N 40°41' W 074°01'0 0.0
2018-Apr-11 11:29N 40°41' W 074°01'0 0.0
2018-Apr-11 10:59N 40°41' W 074°01'0 0.0
2018-Apr-11 10:30N 40°41' W 074°01'0 0.0
2018-Apr-11 10:00N 40°41' W 074°01'0 0.0
2018-Apr-11 09:29N 40°41' W 074°01'0 0.0
2018-Apr-11 08:59N 40°41' W 074°01'0 0.0
2018-Apr-11 08:29N 40°41' W 074°01'0 0.0
2018-Apr-11 07:59N 40°41' W 074°01'0 0.0
2018-Apr-11 07:29N 40°41' W 074°01'0 0.0
2018-Apr-11 06:59N 40°41' W 074°01'0 0.0
2018-Apr-11 06:29N 40°41' W 074°01'0 0.0
2018-Apr-11 05:59N 40°41' W 074°01'0 0.0
2018-Apr-11 05:29N 40°41' W 074°01'0 0.0
2018-Apr-11 04:59N 40°41' W 074°01'0 0.0
2018-Apr-11 04:29N 40°41' W 074°01'0 0.0
2018-Apr-11 03:59N 40°41' W 074°01'0 0.0
2018-Apr-11 03:29N 40°41' W 074°01'0 0.0
2018-Apr-11 02:59N 40°41' W 074°01'0 0.0
2018-Apr-11 02:29N 40°41' W 074°01'0 0.0
2018-Apr-11 01:59N 40°41' W 074°01'0 0.0
2018-Apr-11 01:29N 40°41' W 074°01'0 0.0
2018-Apr-11 00:59N 40°41' W 074°01'0 0.0
2018-Apr-11 00:29N 40°41' W 074°01'0 0.0
2018-Apr-10 23:59N 40°41' W 074°01'0 0.0
2018-Apr-10 23:29N 40°41' W 074°01'1 2.3
2018-Apr-10 23:01N 40°41' W 074°02'4 8.2
2018-Apr-10 22:30N 40°37' W 074°03'713.6
2018-Apr-10 22:00N 40°31' W 073°58'510.7
2018-Apr-10 21:30N 40°28' W 073°52'5 9.0
2018-Apr-10 21:00N 40°26' W 073°47'4 6.9
2018-Apr-10 20:29N 40°22' W 073°46'104 9.8
2018-Apr-10 09:55N 38°60' W 075°08'716.5
2018-Apr-10 09:29N 39°06' W 075°12'816.8
2018-Apr-10 09:00N 39°13' W 075°18'612.1
2018-Apr-10 08:30N 39°18' W 075°23'714.2
2018-Apr-10 08:00N 39°23' W 075°28'815.1
2018-Apr-10 07:30N 39°29' W 075°34'713.3
2018-Apr-10 07:00N 39°36' W 075°34'713.1
2018-Apr-10 06:30N 39°42' W 075°31'713.3
2018-Apr-10 06:00N 39°48' W 075°26'5 9.6
2018-Apr-10 05:30N 39°50' W 075°21'1 1.7
2018-Apr-10 05:00N 39°51' W 075°20'0 0.0
2018-Apr-10 04:30N 39°51' W 075°20'0 0.0
2018-Apr-10 04:00N 39°51' W 075°20'0 0.0
2018-Apr-10 03:30N 39°51' W 075°20'0 0.0
2018-Apr-10 03:00N 39°51' W 075°20'0 0.0
2018-Apr-10 02:30N 39°51' W 075°20'0 0.1
2018-Apr-10 02:00N 39°51' W 075°20'0 0.0
2018-Apr-10 01:30N 39°51' W 075°20'0 0.0
2018-Apr-10 01:00N 39°51' W 075°20'0 0.0
2018-Apr-10 00:30N 39°51' W 075°20'0 0.0
2018-Apr-10 00:00N 39°51' W 075°20'0 0.0
2018-Apr-09 23:30N 39°51' W 075°20'0 0.0
2018-Apr-09 23:00N 39°51' W 075°20'0 0.0
2018-Apr-09 22:30N 39°51' W 075°20'0 0.0
2018-Apr-09 22:00N 39°51' W 075°20'0 0.0
2018-Apr-09 21:30N 39°51' W 075°20'0 0.0
2018-Apr-09 21:00N 39°51' W 075°20'0 0.0
2018-Apr-09 20:30N 39°51' W 075°20'0 0.0
2018-Apr-09 20:00N 39°51' W 075°20'0 0.0
2018-Apr-09 19:30N 39°51' W 075°20'0 0.0
2018-Apr-09 19:00N 39°51' W 075°20'0 0.0
2018-Apr-09 18:30N 39°51' W 075°20'0 0.0
2018-Apr-09 18:00N 39°51' W 075°20'0 0.0
2018-Apr-09 17:30N 39°51' W 075°20'0 0.0
2018-Apr-09 17:00N 39°51' W 075°20'0 0.1
2018-Apr-09 16:29N 39°51' W 075°20'2 3.1
2018-Apr-09 16:00N 39°50' W 075°22'4 7.7
2018-Apr-09 15:30N 39°48' W 075°26'612.3
2018-Apr-09 15:00N 39°43' W 075°31'611.7
2018-Apr-09 14:30N 39°38' W 075°34'611.8
2018-Apr-09 14:00N 39°32' W 075°33'713.9
2018-Apr-09 13:31N 39°25' W 075°31'815.5
2018-Apr-09 13:00N 39°19' W 075°24'815.9
2018-Apr-09 12:31N 39°13' W 075°18'815.9
2018-Apr-09 12:00N 39°07' W 075°12'  
2018-Apr-03 08:45N 09°36' W 079°47'520.1
2018-Apr-03 08:30N 09°32' W 079°50'816.5
2018-Apr-03 08:00N 09°24' W 079°54'3 5.6
2018-Apr-03 07:31N 09°21' W 079°53'0 0.0
2018-Apr-03 06:58N 09°21' W 079°53'0 0.0
2018-Apr-03 06:28N 09°21' W 079°53'0 0.0
2018-Apr-03 05:58N 09°21' W 079°53'0 0.0
2018-Apr-03 05:28N 09°21' W 079°53'0 0.0
2018-Apr-03 04:58N 09°21' W 079°53'0 0.0
2018-Apr-03 04:28N 09°21' W 079°53'0 0.0
2018-Apr-03 03:58N 09°21' W 079°53'0 0.0
2018-Apr-03 03:28N 09°21' W 079°53'0 0.0
2018-Apr-03 02:58N 09°21' W 079°53'0 0.0
2018-Apr-03 02:28N 09°21' W 079°53'0 0.0
2018-Apr-03 01:58N 09°21' W 079°53'0 0.0
2018-Apr-03 01:28N 09°21' W 079°53'0 0.0
2018-Apr-03 00:58N 09°21' W 079°53'0 0.0
2018-Apr-03 00:28N 09°21' W 079°53'0 0.0
2018-Apr-02 23:58N 09°21' W 079°53'0 0.0
2018-Apr-02 23:28N 09°21' W 079°53'0 0.0
2018-Apr-02 22:58N 09°21' W 079°53'0 0.0
2018-Apr-02 22:28N 09°21' W 079°53'0 0.0
2018-Apr-02 21:58N 09°21' W 079°53'0 0.0
2018-Apr-02 21:28N 09°21' W 079°53'0 0.0
2018-Apr-02 20:58N 09°21' W 079°53'0 0.0
2018-Apr-02 20:28N 09°21' W 079°53'0 0.0
2018-Apr-02 19:58N 09°21' W 079°53'0 0.0
2018-Apr-02 19:28N 09°21' W 079°53'0 0.0
2018-Apr-02 18:58N 09°21' W 079°53'0 0.0
2018-Apr-02 18:28N 09°21' W 079°53'0 0.0
2018-Apr-02 17:58N 09°21' W 079°53'0 0.0
2018-Apr-02 17:28N 09°21' W 079°53'0 0.0
2018-Apr-02 16:58N 09°21' W 079°53'0 0.0
2018-Apr-02 16:28N 09°21' W 079°53'0 0.0
2018-Apr-02 15:58N 09°21' W 079°53'0 0.0
2018-Apr-02 15:28N 09°21' W 079°53'0 0.0
2018-Apr-02 14:58N 09°21' W 079°53'0 0.0
2018-Apr-02 14:28N 09°21' W 079°53'0 0.0
2018-Apr-02 13:58N 09°21' W 079°53'0 0.0
2018-Apr-02 13:28N 09°21' W 079°53'0 0.7
2018-Apr-02 13:00N 09°22' W 079°53'1 2.5
2018-Apr-02 12:30N 09°23' W 079°54'4 7.0
2018-Apr-02 12:00N 09°26' W 079°53'0 1.0
2018-Apr-02 11:30N 09°27' W 079°53'0 0.8
2018-Apr-02 11:00N 09°27' W 079°53'0 1.0
2018-Apr-02 10:30N 09°27' W 079°54'1 1.2
2018-Apr-02 10:00N 09°28' W 079°54'3 6.2
2018-Apr-02 09:30N 09°30' W 079°56'1110.3
2018-Apr-02 08:26N 09°33' W 080°07'  
Track history (hours):
 
Tides and Currents Weather Stations Pressure Air Temp Water Temp Dewpoint Dewpoint Depression Visibility Wind Speed Wind Dir Waves Ship Positions

Hermann Hesse

Last reported at 2018-Apr-12 08:22 UTC. Time now 2018-Jun-18 01:27 UTC.
Position N 40°20' W 073°42'.
Warning: this ship's position is months out of date.

Length 177 m; draft 9 m.

Type: Cargo ship. MMSI: 636091222.

Date/timePositionNaut miles runAvg speedWind from/ knotsBaromVisibWave heightAir tempDewpointWater temp
2018-Apr-12 08:22N 40°20' W 073°42'4 9.8
2018-Apr-12 07:57N 40°23' W 073°45'510.0
2018-Apr-12 07:30N 40°27' W 073°49'5 9.6
2018-Apr-12 07:00N 40°29' W 073°54'612.0
2018-Apr-12 06:30N 40°32' W 074°01'612.7
2018-Apr-12 06:00N 40°38' W 074°03'4 7.5
2018-Apr-12 05:30N 40°41' W 074°01'0 0.3
2018-Apr-12 05:00N 40°41' W 074°01'0 0.0
2018-Apr-12 04:30N 40°41' W 074°01'0 0.0
2018-Apr-12 04:00N 40°41' W 074°01'0 0.0
2018-Apr-12 03:30N 40°41' W 074°01'0 0.0
2018-Apr-12 03:00N 40°41' W 074°01'0 0.0
2018-Apr-12 02:30N 40°41' W 074°01'0 0.0
2018-Apr-12 02:00N 40°41' W 074°01'0 0.0
2018-Apr-12 01:30N 40°41' W 074°01'0 0.0
2018-Apr-12 01:00N 40°41' W 074°01'0 0.0
2018-Apr-12 00:30N 40°41' W 074°01'0 0.0
2018-Apr-12 00:00N 40°41' W 074°01'0 0.0
2018-Apr-11 23:30N 40°41' W 074°01'0 0.0
2018-Apr-11 23:00N 40°41' W 074°01'0 0.0
2018-Apr-11 22:30N 40°41' W 074°01'0 0.0
2018-Apr-11 22:00N 40°41' W 074°01'0 0.0
2018-Apr-11 21:30N 40°41' W 074°01'0 0.0
2018-Apr-11 21:00N 40°41' W 074°01'0 0.0
2018-Apr-11 20:30N 40°41' W 074°01'0 0.0
2018-Apr-11 20:00N 40°41' W 074°01'0 0.0
2018-Apr-11 19:30N 40°41' W 074°01'0 0.0
2018-Apr-11 19:00N 40°41' W 074°01'0 0.0
2018-Apr-11 18:29N 40°41' W 074°01'0 0.0
2018-Apr-11 18:00N 40°41' W 074°01'0 0.0
2018-Apr-11 17:30N 40°41' W 074°01'0 0.0
2018-Apr-11 17:00N 40°41' W 074°01'0 0.0
2018-Apr-11 16:30N 40°41' W 074°01'0 0.0
2018-Apr-11 16:00N 40°41' W 074°01'0 0.0
2018-Apr-11 15:30N 40°41' W 074°01'0 0.0
2018-Apr-11 15:00N 40°41' W 074°01'0 0.0
2018-Apr-11 14:30N 40°41' W 074°01'0 0.0
2018-Apr-11 14:00N 40°41' W 074°01'0 0.0
2018-Apr-11 13:29N 40°41' W 074°01'0 0.0
2018-Apr-11 12:59N 40°41' W 074°01'0 0.0
2018-Apr-11 12:30N 40°41' W 074°01'0 0.0
2018-Apr-11 12:00N 40°41' W 074°01'0 0.0
2018-Apr-11 11:29N 40°41' W 074°01'0 0.0
2018-Apr-11 10:59N 40°41' W 074°01'0 0.0
2018-Apr-11 10:30N 40°41' W 074°01'0 0.0
2018-Apr-11 10:00N 40°41' W 074°01'0 0.0
2018-Apr-11 09:29N 40°41' W 074°01'0 0.0
2018-Apr-11 08:59N 40°41' W 074°01'0 0.0
2018-Apr-11 08:29N 40°41' W 074°01'0 0.0
2018-Apr-11 07:59N 40°41' W 074°01'0 0.0
2018-Apr-11 07:29N 40°41' W 074°01'0 0.0
2018-Apr-11 06:59N 40°41' W 074°01'0 0.0
2018-Apr-11 06:29N 40°41' W 074°01'0 0.0
2018-Apr-11 05:59N 40°41' W 074°01'0 0.0
2018-Apr-11 05:29N 40°41' W 074°01'0 0.0
2018-Apr-11 04:59N 40°41' W 074°01'0 0.0
2018-Apr-11 04:29N 40°41' W 074°01'0 0.0
2018-Apr-11 03:59N 40°41' W 074°01'0 0.0
2018-Apr-11 03:29N 40°41' W 074°01'0 0.0
2018-Apr-11 02:59N 40°41' W 074°01'0 0.0
2018-Apr-11 02:29N 40°41' W 074°01'0 0.0
2018-Apr-11 01:59N 40°41' W 074°01'0 0.0
2018-Apr-11 01:29N 40°41' W 074°01'0 0.0
2018-Apr-11 00:59N 40°41' W 074°01'0 0.0
2018-Apr-11 00:29N 40°41' W 074°01'0 0.0
2018-Apr-10 23:59N 40°41' W 074°01'0 0.0
2018-Apr-10 23:29N 40°41' W 074°01'1 2.3
2018-Apr-10 23:01N 40°41' W 074°02'4 8.2
2018-Apr-10 22:30N 40°37' W 074°03'713.6
2018-Apr-10 22:00N 40°31' W 073°58'510.7
2018-Apr-10 21:30N 40°28' W 073°52'5 9.0
2018-Apr-10 21:00N 40°26' W 073°47'4 6.9
2018-Apr-10 20:29N 40°22' W 073°46'104 9.8
2018-Apr-10 09:55N 38°60' W 075°08'716.5
2018-Apr-10 09:29N 39°06' W 075°12'816.8
2018-Apr-10 09:00N 39°13' W 075°18'612.1
2018-Apr-10 08:30N 39°18' W 075°23'714.2
2018-Apr-10 08:00N 39°23' W 075°28'815.1
2018-Apr-10 07:30N 39°29' W 075°34'713.3
2018-Apr-10 07:00N 39°36' W 075°34'713.1
2018-Apr-10 06:30N 39°42' W 075°31'713.3
2018-Apr-10 06:00N 39°48' W 075°26'5 9.6
2018-Apr-10 05:30N 39°50' W 075°21'1 1.7
2018-Apr-10 05:00N 39°51' W 075°20'0 0.0
2018-Apr-10 04:30N 39°51' W 075°20'0 0.0
2018-Apr-10 04:00N 39°51' W 075°20'0 0.0
2018-Apr-10 03:30N 39°51' W 075°20'0 0.0
2018-Apr-10 03:00N 39°51' W 075°20'0 0.0
2018-Apr-10 02:30N 39°51' W 075°20'0 0.1
2018-Apr-10 02:00N 39°51' W 075°20'0 0.0
2018-Apr-10 01:30N 39°51' W 075°20'0 0.0
2018-Apr-10 01:00N 39°51' W 075°20'0 0.0
2018-Apr-10 00:30N 39°51' W 075°20'0 0.0
2018-Apr-10 00:00N 39°51' W 075°20'0 0.0
2018-Apr-09 23:30N 39°51' W 075°20'0 0.0
2018-Apr-09 23:00N 39°51' W 075°20'0 0.0
2018-Apr-09 22:30N 39°51' W 075°20'0 0.0
2018-Apr-09 22:00N 39°51' W 075°20'0 0.0
2018-Apr-09 21:30N 39°51' W 075°20'0 0.0
2018-Apr-09 21:00N 39°51' W 075°20'0 0.0
2018-Apr-09 20:30N 39°51' W 075°20'0 0.0
2018-Apr-09 20:00N 39°51' W 075°20'0 0.0
2018-Apr-09 19:30N 39°51' W 075°20'0 0.0
2018-Apr-09 19:00N 39°51' W 075°20'0 0.0
2018-Apr-09 18:30N 39°51' W 075°20'0 0.0
2018-Apr-09 18:00N 39°51' W 075°20'0 0.0
2018-Apr-09 17:30N 39°51' W 075°20'0 0.0
2018-Apr-09 17:00N 39°51' W 075°20'0 0.1
2018-Apr-09 16:29N 39°51' W 075°20'2 3.1
2018-Apr-09 16:00N 39°50' W 075°22'4 7.7
2018-Apr-09 15:30N 39°48' W 075°26'612.3
2018-Apr-09 15:00N 39°43' W 075°31'611.7
2018-Apr-09 14:30N 39°38' W 075°34'611.8
2018-Apr-09 14:00N 39°32' W 075°33'713.9
2018-Apr-09 13:31N 39°25' W 075°31'815.5
2018-Apr-09 13:00N 39°19' W 075°24'815.9
2018-Apr-09 12:31N 39°13' W 075°18'815.9
2018-Apr-09 12:00N 39°07' W 075°12'  
2018-Apr-03 08:45N 09°36' W 079°47'520.1
2018-Apr-03 08:30N 09°32' W 079°50'816.5
2018-Apr-03 08:00N 09°24' W 079°54'3 5.6
2018-Apr-03 07:31N 09°21' W 079°53'0 0.0
2018-Apr-03 06:58N 09°21' W 079°53'0 0.0
2018-Apr-03 06:28N 09°21' W 079°53'0 0.0
2018-Apr-03 05:58N 09°21' W 079°53'0 0.0
2018-Apr-03 05:28N 09°21' W 079°53'0 0.0
2018-Apr-03 04:58N 09°21' W 079°53'0 0.0
2018-Apr-03 04:28N 09°21' W 079°53'0 0.0
2018-Apr-03 03:58N 09°21' W 079°53'0 0.0
2018-Apr-03 03:28N 09°21' W 079°53'0 0.0
2018-Apr-03 02:58N 09°21' W 079°53'0 0.0
2018-Apr-03 02:28N 09°21' W 079°53'0 0.0
2018-Apr-03 01:58N 09°21' W 079°53'0 0.0
2018-Apr-03 01:28N 09°21' W 079°53'0 0.0
2018-Apr-03 00:58N 09°21' W 079°53'0 0.0
2018-Apr-03 00:28N 09°21' W 079°53'0 0.0
2018-Apr-02 23:58N 09°21' W 079°53'0 0.0
2018-Apr-02 23:28N 09°21' W 079°53'0 0.0
2018-Apr-02 22:58N 09°21' W 079°53'0 0.0
2018-Apr-02 22:28N 09°21' W 079°53'0 0.0
2018-Apr-02 21:58N 09°21' W 079°53'0 0.0
2018-Apr-02 21:28N 09°21' W 079°53'0 0.0
2018-Apr-02 20:58N 09°21' W 079°53'0 0.0
2018-Apr-02 20:28N 09°21' W 079°53'0 0.0
2018-Apr-02 19:58N 09°21' W 079°53'0 0.0
2018-Apr-02 19:28N 09°21' W 079°53'0 0.0
2018-Apr-02 18:58N 09°21' W 079°53'0 0.0
2018-Apr-02 18:28N 09°21' W 079°53'0 0.0
2018-Apr-02 17:58N 09°21' W 079°53'0 0.0
2018-Apr-02 17:28N 09°21' W 079°53'0 0.0
2018-Apr-02 16:58N 09°21' W 079°53'0 0.0
2018-Apr-02 16:28N 09°21' W 079°53'0 0.0
2018-Apr-02 15:58N 09°21' W 079°53'0 0.0
2018-Apr-02 15:28N 09°21' W 079°53'0 0.0
2018-Apr-02 14:58N 09°21' W 079°53'0 0.0
2018-Apr-02 14:28N 09°21' W 079°53'0 0.0
2018-Apr-02 13:58N 09°21' W 079°53'0 0.0
2018-Apr-02 13:28N 09°21' W 079°53'0 0.7
2018-Apr-02 13:00N 09°22' W 079°53'1 2.5
2018-Apr-02 12:30N 09°23' W 079°54'4 7.0
2018-Apr-02 12:00N 09°26' W 079°53'0 1.0
2018-Apr-02 11:30N 09°27' W 079°53'0 0.8
2018-Apr-02 11:00N 09°27' W 079°53'0 1.0
2018-Apr-02 10:30N 09°27' W 079°54'1 1.2
2018-Apr-02 10:00N 09°28' W 079°54'3 6.2
2018-Apr-02 09:30N 09°30' W 079°56'1110.3
2018-Apr-02 08:26N 09°33' W 080°07'  

Dump ship's entire track history